createdAt,value
2023-05-01T00:03:54.490Z,59.76
2023-05-01T00:08:56.091Z,59.67
2023-05-01T00:13:57.284Z,59.96
2023-05-01T00:18:58.509Z,59.75
2023-05-01T00:23:59.724Z,60.83
2023-05-01T00:29:01.207Z,60.85
2023-05-01T00:34:02.570Z,60.95
2023-05-01T00:39:03.877Z,62.10
2023-05-01T00:44:05.080Z,61.86
2023-05-01T00:49:06.373Z,61.49
2023-05-01T00:54:07.650Z,61.88
2023-05-01T00:59:09.056Z,61.39
2023-05-01T01:04:10.472Z,62.40
2023-05-01T01:09:11.722Z,62.77
2023-05-01T01:14:13.007Z,61.73
2023-05-01T01:19:14.236Z,62.76
2023-05-01T01:24:15.760Z,62.33
2023-05-01T01:29:17.198Z,63.27
2023-05-01T01:34:18.704Z,63.39
2023-05-01T01:39:19.994Z,63.14
2023-05-01T01:44:21.438Z,62.92
2023-05-01T01:49:23.002Z,62.66
2023-05-01T01:54:24.255Z,62.21
2023-05-01T01:59:25.625Z,61.39
2023-05-01T02:04:26.921Z,61.46
2023-05-01T02:09:28.153Z,61.26
2023-05-01T02:14:29.659Z,61.15
2023-05-01T02:19:31.047Z,61.17
2023-05-01T02:24:32.391Z,61.50
2023-05-01T02:29:34.143Z,61.47
2023-05-01T02:34:35.610Z,61.40
2023-05-01T02:39:36.905Z,61.86
2023-05-01T02:44:38.177Z,61.28
2023-05-01T02:49:39.453Z,61.49
2023-05-01T02:54:40.692Z,61.43
2023-05-01T02:59:41.930Z,61.50
2023-05-01T03:04:43.830Z,62.47
2023-05-01T03:09:45.361Z,62.40
2023-05-01T03:14:46.580Z,62.45
2023-05-01T03:19:49.578Z,62.68
2023-05-01T03:24:51.096Z,62.03
2023-05-01T03:29:52.843Z,62.29
2023-05-01T03:34:54.178Z,63.40
2023-05-01T03:39:55.799Z,62.42
2023-05-01T03:44:57.199Z,62.19
2023-05-01T03:49:58.707Z,61.64
2023-05-01T03:55:00.603Z,62.49
2023-05-01T04:00:01.892Z,63.96
2023-05-01T04:05:03.227Z,64.70
2023-05-01T04:10:04.741Z,64.45
2023-05-01T04:15:05.954Z,64.59
2023-05-01T04:20:07.205Z,64.44
2023-05-01T04:25:08.607Z,65.23
2023-05-01T04:30:09.876Z,64.38
2023-05-01T04:35:12.275Z,64.19
2023-05-01T04:40:13.504Z,65.81
2023-05-01T04:45:14.798Z,66.52
2023-05-01T04:50:16.114Z,65.72
2023-05-01T04:55:18.168Z,65.11
2023-05-01T05:00:19.778Z,64.60
2023-05-01T05:05:21.120Z,65.68
2023-05-01T05:10:22.364Z,66.15
2023-05-01T05:15:23.664Z,64.83
2023-05-01T05:20:24.911Z,65.37
2023-05-01T05:25:26.157Z,64.04
2023-05-01T05:30:27.446Z,64.01
2023-05-01T05:35:28.661Z,65.02
2023-05-01T05:40:30.143Z,64.34
2023-05-01T05:45:31.731Z,64.43
2023-05-01T05:50:33.000Z,62.60
2023-05-01T05:55:34.266Z,63.84
2023-05-01T06:00:35.551Z,64.27
2023-05-01T06:05:37.112Z,64.22
2023-05-01T06:10:39.486Z,64.32
2023-05-01T06:15:40.915Z,65.35
2023-05-01T06:20:42.729Z,65.79
2023-05-01T06:25:44.380Z,61.91
2023-05-01T06:30:45.712Z,57.81
2023-05-01T06:35:46.969Z,61.25
2023-05-01T06:40:48.236Z,60.14
2023-05-01T06:45:49.916Z,62.15
2023-05-01T06:50:51.179Z,58.01
2023-05-01T06:55:52.379Z,58.27
2023-05-01T07:00:53.788Z,57.54
2023-05-01T07:05:55.196Z,55.87
2023-05-01T07:10:56.479Z,55.58
2023-05-01T07:15:57.751Z,57.20
2023-05-01T07:20:59.031Z,54.80
2023-05-01T07:26:00.418Z,56.54
2023-05-01T07:31:01.779Z,56.04
2023-05-01T07:36:04.506Z,54.81
2023-05-01T07:41:05.860Z,51.42
2023-05-01T07:46:07.242Z,46.13
2023-05-01T07:51:08.743Z,46.42
2023-05-01T07:56:10.166Z,47.71
2023-05-01T08:01:11.466Z,45.80
2023-05-01T08:06:12.790Z,45.37
2023-05-01T08:11:14.290Z,48.02
2023-05-01T08:16:15.576Z,46.47
2023-05-01T08:21:16.926Z,48.90
2023-05-01T08:26:19.499Z,48.33
2023-05-01T08:31:21.637Z,49.50
2023-05-01T08:36:22.910Z,49.52
2023-05-01T08:41:24.219Z,49.42
2023-05-01T08:46:25.904Z,48.56
2023-05-01T08:51:27.287Z,48.03
2023-05-01T08:56:29.746Z,47.46
2023-05-01T09:01:32.861Z,45.65
2023-05-01T09:06:34.627Z,47.84
2023-05-01T09:11:38.280Z,46.95
2023-05-01T09:16:39.737Z,46.68
2023-05-01T09:21:41.638Z,46.25
2023-05-01T09:26:43.347Z,44.51
2023-05-01T09:31:44.633Z,45.46
2023-05-01T09:36:47.600Z,46.10
2023-05-01T09:41:48.872Z,44.79
2023-05-01T09:46:50.853Z,45.50
2023-05-01T09:51:52.244Z,46.28
2023-05-01T09:56:53.499Z,45.71
2023-05-01T10:01:54.837Z,46.23
2023-05-01T10:06:56.251Z,46.21
2023-05-01T10:11:59.015Z,45.80
2023-05-01T10:17:00.431Z,46.14
2023-05-01T10:22:01.752Z,44.33
2023-05-01T10:27:05.564Z,44.57
2023-05-01T10:32:09.895Z,45.23
2023-05-01T10:37:12.822Z,43.00
2023-05-01T10:42:14.771Z,43.09
2023-05-01T10:47:16.025Z,44.23
2023-05-01T10:52:17.542Z,43.21
2023-05-01T10:57:18.807Z,42.03
2023-05-01T11:02:20.281Z,41.16
2023-05-01T11:07:22.349Z,40.99
2023-05-01T11:12:24.062Z,42.10
2023-05-01T11:17:25.501Z,41.11
2023-05-01T11:22:26.796Z,41.05
2023-05-01T11:27:28.023Z,41.34
2023-05-01T11:32:32.433Z,39.85
2023-05-01T11:37:33.679Z,40.71
2023-05-01T11:42:35.021Z,41.14
2023-05-01T11:47:36.462Z,42.03
2023-05-01T11:52:38.158Z,40.72
2023-05-01T11:57:39.428Z,41.67
2023-05-01T12:02:40.734Z,42.09
2023-05-01T12:07:41.992Z,42.02
2023-05-01T12:12:43.210Z,39.53
2023-05-01T12:17:46.419Z,41.38
2023-05-01T12:22:48.406Z,41.50
2023-05-01T12:27:49.607Z,41.00
2023-05-01T12:32:50.990Z,40.88
2023-05-01T12:37:52.283Z,41.27
2023-05-01T12:42:53.532Z,41.31
2023-05-01T12:47:54.787Z,41.61
2023-05-01T12:52:56.134Z,40.87
2023-05-01T12:57:57.442Z,41.75
2023-05-01T13:02:58.706Z,41.59
2023-05-01T13:07:59.976Z,41.39
2023-05-01T13:13:01.287Z,42.66
2023-05-01T13:18:02.716Z,40.94
2023-05-01T13:23:03.971Z,41.50
2023-05-01T13:28:05.210Z,43.37
2023-05-01T13:33:07.778Z,44.15
2023-05-01T13:38:09.211Z,44.58
2023-05-01T13:43:10.511Z,45.31
2023-05-01T13:48:12.242Z,45.48
2023-05-01T13:53:13.483Z,47.65
2023-05-01T13:58:14.744Z,47.25
2023-05-01T14:03:16.189Z,54.08
2023-05-01T14:08:17.694Z,57.43
2023-05-01T14:13:19.145Z,57.34
2023-05-01T14:18:20.815Z,64.80
2023-05-01T14:23:22.985Z,66.70
2023-05-01T14:28:24.218Z,68.90
2023-05-01T14:33:26.810Z,70.20
2023-05-01T14:38:28.141Z,70.57
2023-05-01T14:43:29.380Z,70.33
2023-05-01T14:48:30.912Z,72.28
2023-05-01T14:53:33.540Z,69.14
2023-05-01T14:58:34.867Z,69.48
2023-05-01T15:03:40.930Z,71.81
2023-05-01T15:08:42.796Z,73.17
2023-05-01T15:13:45.184Z,72.87
2023-05-01T15:18:46.407Z,72.73
2023-05-01T15:23:47.815Z,72.94
2023-05-01T15:28:49.165Z,72.04
2023-05-01T15:33:50.512Z,72.91
2023-05-01T15:38:51.895Z,73.96
2023-05-01T15:43:54.337Z,74.17
2023-05-01T15:48:55.850Z,72.05
2023-05-01T15:53:58.587Z,69.19
2023-05-01T15:58:59.950Z,68.79
2023-05-01T16:04:01.292Z,67.73
2023-05-01T16:09:02.623Z,68.29
2023-05-01T16:14:03.902Z,66.57
2023-05-01T16:19:05.584Z,66.84
2023-05-01T16:24:06.821Z,66.79
2023-05-01T16:29:08.712Z,65.09
2023-05-01T16:34:10.019Z,66.97
2023-05-01T16:39:11.331Z,65.72
2023-05-01T16:44:12.599Z,67.62
2023-05-01T16:49:14.325Z,66.64
2023-05-01T16:54:15.608Z,66.95
2023-05-01T16:59:16.838Z,67.50
2023-05-01T17:04:18.118Z,66.60
2023-05-01T17:09:19.407Z,64.75
2023-05-01T17:14:20.978Z,66.36
2023-05-01T17:19:22.210Z,66.07
2023-05-01T17:24:23.732Z,66.16
2023-05-01T17:29:25.010Z,65.08
2023-05-01T17:34:26.285Z,65.57
2023-05-01T17:39:28.130Z,65.66
2023-05-01T17:44:29.417Z,65.70
2023-05-01T17:49:30.673Z,67.24
2023-05-01T17:54:32.093Z,65.32
2023-05-01T17:59:33.297Z,65.21
2023-05-01T18:04:36.069Z,64.28
2023-05-01T18:09:38.143Z,63.94
2023-05-01T18:14:39.403Z,65.44
2023-05-01T18:19:41.296Z,60.37
2023-05-01T18:24:42.515Z,58.24
2023-05-01T18:29:44.253Z,59.48
2023-05-01T18:34:45.855Z,62.55
2023-05-01T18:39:47.128Z,63.78
2023-05-01T18:44:48.386Z,65.71
2023-05-01T18:49:49.609Z,67.35
2023-05-01T18:54:51.281Z,68.39
2023-05-01T18:59:52.504Z,69.17
2023-05-01T19:04:57.741Z,70.42
2023-05-01T19:10:00.993Z,70.74
2023-05-01T19:15:02.532Z,70.68
2023-05-01T19:20:04.459Z,72.23
2023-05-01T19:25:05.917Z,72.89
2023-05-01T19:30:07.174Z,73.16
2023-05-01T19:35:11.184Z,72.78
2023-05-01T19:40:12.654Z,73.66
2023-05-01T19:45:15.757Z,74.11
2023-05-01T19:50:22.169Z,73.04
2023-05-01T19:55:23.372Z,73.43
2023-05-01T20:00:24.603Z,73.15
2023-05-01T20:05:28.165Z,73.70
2023-05-01T20:10:29.493Z,73.29
2023-05-01T20:15:30.748Z,72.75
2023-05-01T20:20:32.132Z,73.89
2023-05-01T20:25:33.415Z,73.49
2023-05-01T20:30:35.656Z,74.06
2023-05-01T20:35:37.140Z,72.00
2023-05-01T20:40:40.311Z,71.56
2023-05-01T20:45:41.627Z,71.43
2023-05-01T20:50:43.857Z,70.95
2023-05-01T20:55:45.293Z,72.93
2023-05-01T21:00:46.576Z,71.99
2023-05-01T21:05:47.869Z,71.57
2023-05-01T21:10:49.092Z,71.53
2023-05-01T21:15:50.423Z,72.11
2023-05-01T21:20:51.693Z,73.44
2023-05-01T21:25:52.902Z,72.80
2023-05-01T21:30:54.194Z,73.20
2023-05-01T21:35:55.442Z,75.16
2023-05-01T21:40:57.026Z,75.11
2023-05-01T21:45:58.267Z,74.30
2023-05-01T21:51:00.626Z,73.87
2023-05-01T21:56:01.899Z,74.86
2023-05-01T22:01:03.189Z,73.57
2023-05-01T22:06:04.593Z,73.11
2023-05-01T22:11:07.784Z,72.55
2023-05-01T22:16:10.020Z,72.05
2023-05-01T22:21:11.331Z,71.85
2023-05-01T22:26:12.566Z,71.42
2023-05-01T22:31:13.820Z,71.68
2023-05-01T22:36:15.196Z,71.46
2023-05-01T22:41:16.661Z,72.26
2023-05-01T22:46:17.968Z,72.71
2023-05-01T22:51:19.332Z,71.52
2023-05-01T22:56:21.030Z,70.89
2023-05-01T23:01:27.041Z,70.68
2023-05-01T23:06:28.507Z,71.06
2023-05-01T23:11:29.933Z,71.15
2023-05-01T23:16:31.444Z,71.16
2023-05-01T23:21:33.083Z,71.70
2023-05-01T23:26:34.362Z,72.67
2023-05-01T23:31:35.662Z,72.21
2023-05-01T23:36:36.902Z,71.70
2023-05-01T23:41:38.304Z,71.85
2023-05-01T23:46:39.738Z,71.19
2023-05-01T23:51:41.011Z,71.63
2023-05-01T23:56:42.267Z,73.43
